Alanson, Michigan
Current Conditions -  °F | °C
As of 1:14 PM on Thursday 29 Jan 2015 (Local Time) from KMGN Reporting Station
Light Snow Light Snow  
Wind Chill: 27°   Ceiling: 900
Heat Index: 27°   Visibility: 1.7mi
Dew Point: 25°   Wind: 3mph
Humidity: 95%   Direction: 230°SW
Pressure: 29.77"   Gusts: NA
Location:  45.44°N, 84.79°W
Report Text: KMGN 291814Z AUTO 23003KT 1 3/4SM -SN OVC009 M03/M03 A2977 RMK AO2 T10301037
Loading
Personal Weather Stations






























Interactive Weather Map New forecast layout! Learn more

10-Day Weather Forecast

Advertisements
Track Severe Weather on mobile